Portada
METAR-TAF:

METAR-TAF

Aeroports :

Mackall Army Airfield

Camp Mackall, Carolina del Nord, Estats Units d'Amèrica

latitud: 35-02N, longitud: 079-30W, altitud: 115 m

Observació

L'informe es va fer fa 14 minuts, a les 22:56 UTC
Vent calma
Temperatura 0°C
Humitat 59%
Pressió 1028 hPa
Visibilitat: 16.1 km
Cel clar

METAR: KHFF 132256Z AUTO 00000KT 10SM CLR 00/M07 A3037 RMK AO2 SLP305 T00001070 $

Hora: 18:10 (23:10 UTC)


TAF: manca

Observacions i pronòstics meteorològics de més de 4000 aeroports (METAR i TAF).

Les estacions disponibles són els punts grocs i vermells al mapa.

Posi el ratolí al punt desitjat per veure el nom de l'estació.

Feu clic per veure les observacions i els pronòstics meteorològics.

Per canviar el mapa: feu clic els botons verds amb una creu de color negre per apropar; al botó verd amb un guió per allunyar la imatge; o en les fletxes verdes per a mapes adjacents.


METAR-TAF: